sensor_id;sensor_type;location;lat;lon;timestamp;pressure;altitude;pressure_sealevel;temperature;humidity
31346;BME280;21711;49.708;18.568;2024-03-17T00:00:38;97593.28;;;6.38;100.00
31346;BME280;21711;49.708;18.568;2024-03-17T00:03:07;97602.38;;;6.47;100.00
31346;BME280;21711;49.708;18.568;2024-03-17T00:05:36;97599.09;;;6.40;100.00
31346;BME280;21711;49.708;18.568;2024-03-17T00:08:04;97591.47;;;6.55;100.00
31346;BME280;21711;49.708;18.568;2024-03-17T00:10:34;97599.03;;;6.35;100.00
31346;BME280;21711;49.708;18.568;2024-03-17T00:13:01;97607.75;;;6.23;100.00
31346;BME280;21711;49.708;18.568;2024-03-17T00:15:27;97622.47;;;6.24;100.00
31346;BME280;21711;49.708;18.568;2024-03-17T00:17:54;97633.22;;;6.23;100.00
31346;BME280;21711;49.708;18.568;2024-03-17T00:20:20;97643.09;;;6.03;100.00
31346;BME280;21711;49.708;18.568;2024-03-17T00:22:49;97647.31;;;6.04;100.00
31346;BME280;21711;49.708;18.568;2024-03-17T00:25:15;97652.13;;;5.84;100.00
31346;BME280;21711;49.708;18.568;2024-03-17T00:27:42;97662.28;;;5.92;100.00
31346;BME280;21711;49.708;18.568;2024-03-17T00:30:11;97670.34;;;6.14;100.00
31346;BME280;21711;49.708;18.568;2024-03-17T00:32:42;97668.50;;;6.15;100.00
31346;BME280;21711;49.708;18.568;2024-03-17T00:35:10;97677.28;;;6.21;100.00
31346;BME280;21711;49.708;18.568;2024-03-17T00:37:40;97680.19;;;6.07;100.00
31346;BME280;21711;49.708;18.568;2024-03-17T00:40:07;97675.84;;;6.01;100.00
31346;BME280;21711;49.708;18.568;2024-03-17T00:42:33;97678.38;;;6.08;100.00
31346;BME280;21711;49.708;18.568;2024-03-17T00:44:59;97676.88;;;6.12;100.00
31346;BME280;21711;49.708;18.568;2024-03-17T00:47:26;97683.16;;;5.75;100.00
31346;BME280;21711;49.708;18.568;2024-03-17T00:49:52;97689.91;;;5.95;100.00
31346;BME280;21711;49.708;18.568;2024-03-17T00:52:18;97693.66;;;5.87;100.00
31346;BME280;21711;49.708;18.568;2024-03-17T00:54:47;97692.88;;;5.86;100.00
31346;BME280;21711;49.708;18.568;2024-03-17T00:57:14;97704.63;;;5.84;100.00
31346;BME280;21711;49.708;18.568;2024-03-17T00:59:44;97706.00;;;5.74;100.00
31346;BME280;21711;49.708;18.568;2024-03-17T01:02:15;97702.69;;;6.03;100.00
31346;BME280;21711;49.708;18.568;2024-03-17T01:04:45;97710.09;;;5.94;100.00
31346;BME280;21711;49.708;18.568;2024-03-17T01:07:12;97709.28;;;5.93;100.00
31346;BME280;21711;49.708;18.568;2024-03-17T01:09:39;97713.75;;;5.93;100.00
31346;BME280;21711;49.708;18.568;2024-03-17T01:12:05;97715.13;;;5.84;100.00
31346;BME280;21711;49.708;18.568;2024-03-17T01:14:32;97718.88;;;6.00;100.00
31346;BME280;21711;49.708;18.568;2024-03-17T01:17:00;97724.56;;;6.21;100.00
31346;BME280;21711;49.708;18.568;2024-03-17T01:19:26;97723.22;;;6.47;100.00
31346;BME280;21711;49.708;18.568;2024-03-17T01:21:53;97731.63;;;6.20;100.00
31346;BME280;21711;49.708;18.568;2024-03-17T01:24:19;97730.28;;;6.17;100.00
31346;BME280;21711;49.708;18.568;2024-03-17T01:26:46;97730.41;;;5.87;100.00
31346;BME280;21711;49.708;18.568;2024-03-17T01:29:12;97720.13;;;5.97;100.00
31346;BME280;21711;49.708;18.568;2024-03-17T01:31:39;97733.25;;;5.97;100.00
31346;BME280;21711;49.708;18.568;2024-03-17T01:34:06;97748.22;;;6.09;100.00
31346;BME280;21711;49.708;18.568;2024-03-17T01:36:32;97726.41;;;5.84;100.00
31346;BME280;21711;49.708;18.568;2024-03-17T01:38:59;97727.44;;;5.95;100.00
31346;BME280;21711;49.708;18.568;2024-03-17T01:41:26;97726.41;;;5.96;100.00
31346;BME280;21711;49.708;18.568;2024-03-17T01:43:52;97737.25;;;6.24;100.00
31346;BME280;21711;49.708;18.568;2024-03-17T01:46:18;97738.03;;;6.12;100.00
31346;BME280;21711;49.708;18.568;2024-03-17T01:48:45;97732.22;;;5.98;100.00
31346;BME280;21711;49.708;18.568;2024-03-17T01:51:13;97728.81;;;6.10;100.00
31346;BME280;21711;49.708;18.568;2024-03-17T01:53:42;97729.03;;;6.08;100.00
31346;BME280;21711;49.708;18.568;2024-03-17T01:56:11;97730.38;;;6.35;100.00
31346;BME280;21711;49.708;18.568;2024-03-17T01:58:38;97735.97;;;6.26;100.00
31346;BME280;21711;49.708;18.568;2024-03-17T02:01:04;97730.88;;;6.08;100.00
31346;BME280;21711;49.708;18.568;2024-03-17T02:03:31;97737.50;;;6.10;100.00
31346;BME280;21711;49.708;18.568;2024-03-17T02:05:58;97734.13;;;6.27;100.00
31346;BME280;21711;49.708;18.568;2024-03-17T02:08:25;97734.00;;;6.34;100.00
31346;BME280;21711;49.708;18.568;2024-03-17T02:10:55;97730.81;;;6.31;100.00
31346;BME280;21711;49.708;18.568;2024-03-17T02:13:22;97737.34;;;6.29;100.00
31346;BME280;21711;49.708;18.568;2024-03-17T02:15:48;97733.56;;;6.25;100.00
31346;BME280;21711;49.708;18.568;2024-03-17T02:18:15;97734.69;;;6.41;100.00
31346;BME280;21711;49.708;18.568;2024-03-17T02:20:41;97743.13;;;6.43;100.00
31346;BME280;21711;49.708;18.568;2024-03-17T02:23:27;97743.34;;;6.41;100.00
31346;BME280;21711;49.708;18.568;2024-03-17T02:25:53;97736.88;;;6.32;100.00
31346;BME280;21711;49.708;18.568;2024-03-17T02:28:20;97739.25;;;6.34;100.00
31346;BME280;21711;49.708;18.568;2024-03-17T02:30:46;97739.03;;;6.35;100.00
31346;BME280;21711;49.708;18.568;2024-03-17T02:33:13;97738.63;;;6.14;100.00
31346;BME280;21711;49.708;18.568;2024-03-17T02:35:39;97740.94;;;6.11;100.00
31346;BME280;21711;49.708;18.568;2024-03-17T02:38:05;97743.78;;;6.09;100.00
31346;BME280;21711;49.708;18.568;2024-03-17T02:40:34;97743.72;;;6.33;100.00
31346;BME280;21711;49.708;18.568;2024-03-17T02:43:00;97748.19;;;6.21;100.00
31346;BME280;21711;49.708;18.568;2024-03-17T02:45:26;97747.03;;;6.28;100.00
31346;BME280;21711;49.708;18.568;2024-03-17T02:47:52;97746.88;;;6.47;100.00
31346;BME280;21711;49.708;18.568;2024-03-17T02:50:19;97742.56;;;6.41;100.00
31346;BME280;21711;49.708;18.568;2024-03-17T02:52:45;97739.03;;;6.35;100.00
31346;BME280;21711;49.708;18.568;2024-03-17T02:55:11;97742.13;;;6.20;100.00
31346;BME280;21711;49.708;18.568;2024-03-17T02:57:37;97744.22;;;6.06;100.00
31346;BME280;21711;49.708;18.568;2024-03-17T03:00:05;97747.66;;;6.07;100.00
31346;BME280;21711;49.708;18.568;2024-03-17T03:02:34;97739.66;;;6.13;100.00
31346;BME280;21711;49.708;18.568;2024-03-17T03:05:01;97741.59;;;6.18;100.00
31346;BME280;21711;49.708;18.568;2024-03-17T03:07:27;97741.94;;;6.10;100.00
31346;BME280;21711;49.708;18.568;2024-03-17T03:09:53;97741.59;;;6.06;100.00
31346;BME280;21711;49.708;18.568;2024-03-17T03:12:20;97749.47;;;6.06;100.00
31346;BME280;21711;49.708;18.568;2024-03-17T03:14:47;97750.16;;;6.01;100.00
31346;BME280;21711;49.708;18.568;2024-03-17T03:17:13;97758.94;;;6.19;100.00
31346;BME280;21711;49.708;18.568;2024-03-17T03:19:39;97757.91;;;5.96;100.00
31346;BME280;21711;49.708;18.568;2024-03-17T03:22:06;97758.41;;;6.05;100.00
31346;BME280;21711;49.708;18.568;2024-03-17T03:24:32;97757.78;;;6.15;100.00
31346;BME280;21711;49.708;18.568;2024-03-17T03:26:58;97757.78;;;6.15;100.00
31346;BME280;21711;49.708;18.568;2024-03-17T03:29:24;97767.19;;;6.11;100.00
31346;BME280;21711;49.708;18.568;2024-03-17T03:31:51;97773.09;;;6.18;100.00
31346;BME280;21711;49.708;18.568;2024-03-17T03:34:17;97763.50;;;6.24;100.00
31346;BME280;21711;49.708;18.568;2024-03-17T03:36:43;97766.59;;;5.97;100.00
31346;BME280;21711;49.708;18.568;2024-03-17T03:39:10;97767.97;;;5.75;100.00
31346;BME280;21711;49.708;18.568;2024-03-17T03:41:38;97772.53;;;5.68;100.00
31346;BME280;21711;49.708;18.568;2024-03-17T03:44:05;97772.19;;;5.64;100.00
31346;BME280;21711;49.708;18.568;2024-03-17T03:46:31;97778.13;;;5.96;100.00
31346;BME280;21711;49.708;18.568;2024-03-17T03:48:57;97773.22;;;5.87;100.00
31346;BME280;21711;49.708;18.568;2024-03-17T03:51:24;97783.59;;;6.18;100.00
31346;BME280;21711;49.708;18.568;2024-03-17T03:53:51;97782.00;;;6.17;100.00
31346;BME280;21711;49.708;18.568;2024-03-17T03:56:18;97790.66;;;6.29;100.00
31346;BME280;21711;49.708;18.568;2024-03-17T03:58:46;97783.25;;;6.02;100.00
31346;BME280;21711;49.708;18.568;2024-03-17T04:01:13;97783.84;;;6.04;100.00
31346;BME280;21711;49.708;18.568;2024-03-17T04:03:47;97788.63;;;5.96;100.00
31346;BME280;21711;49.708;18.568;2024-03-17T04:06:15;97793.31;;;6.05;100.00
31346;BME280;21711;49.708;18.568;2024-03-17T04:08:42;97797.66;;;6.00;100.00
31346;BME280;21711;49.708;18.568;2024-03-17T04:11:09;97793.75;;;5.66;100.00
31346;BME280;21711;49.708;18.568;2024-03-17T04:13:35;97805.50;;;5.52;100.00
31346;BME280;21711;49.708;18.568;2024-03-17T04:16:06;97800.03;;;5.65;100.00
31346;BME280;21711;49.708;18.568;2024-03-17T04:18:34;97802.88;;;5.64;100.00
31346;BME280;21711;49.708;18.568;2024-03-17T04:21:06;97804.47;;;5.65;100.00
31346;BME280;21711;49.708;18.568;2024-03-17T04:23:35;97807.22;;;5.70;100.00
31346;BME280;21711;49.708;18.568;2024-03-17T04:26:02;97812.91;;;5.67;100.00
31346;BME280;21711;49.708;18.568;2024-03-17T04:28:30;97811.97;;;5.37;100.00
31346;BME280;21711;49.708;18.568;2024-03-17T04:31:07;97810.16;;;5.62;100.00
31346;BME280;21711;49.708;18.568;2024-03-17T04:33:34;97808.34;;;5.50;100.00
31346;BME280;21711;49.708;18.568;2024-03-17T04:36:01;97818.25;;;5.48;100.00
31346;BME280;21711;49.708;18.568;2024-03-17T04:38:28;97818.88;;;5.20;100.00
31346;BME280;21711;49.708;18.568;2024-03-17T04:40:55;97814.03;;;5.47;100.00
31346;BME280;21711;49.708;18.568;2024-03-17T04:43:32;97815.63;;;5.60;100.00
31346;BME280;21711;49.708;18.568;2024-03-17T04:46:03;97824.44;;;5.66;100.00
31346;BME280;21711;49.708;18.568;2024-03-17T04:48:31;97824.09;;;5.62;100.00
31346;BME280;21711;49.708;18.568;2024-03-17T04:50:59;97827.44;;;5.27;100.00
31346;BME280;21711;49.708;18.568;2024-03-17T04:53:27;97833.34;;;5.22;100.00
31346;BME280;21711;49.708;18.568;2024-03-17T04:56:05;97831.50;;;5.11;100.00
31346;BME280;21711;49.708;18.568;2024-03-17T04:58:33;97829.50;;;5.25;100.00
31346;BME280;21711;49.708;18.568;2024-03-17T05:01:07;97832.94;;;5.25;100.00
31346;BME280;21711;49.708;18.568;2024-03-17T05:03:34;97832.28;;;5.11;100.00
31346;BME280;21711;49.708;18.568;2024-03-17T05:06:02;97841.75;;;5.12;100.00
31346;BME280;21711;49.708;18.568;2024-03-17T05:08:30;97829.78;;;4.86;100.00
31346;BME280;21711;49.708;18.568;2024-03-17T05:11:04;97839.59;;;5.09;100.00
31346;BME280;21711;49.708;18.568;2024-03-17T05:13:35;97834.63;;;5.32;100.00
31346;BME280;21711;49.708;18.568;2024-03-17T05:16:02;97839.09;;;5.43;100.00
31346;BME280;21711;49.708;18.568;2024-03-17T05:18:31;97842.50;;;5.32;100.00
31346;BME280;21711;49.708;18.568;2024-03-17T05:21:06;97842.81;;;5.23;100.00
31346;BME280;21711;49.708;18.568;2024-03-17T05:23:37;97854.25;;;4.98;100.00
31346;BME280;21711;49.708;18.568;2024-03-17T05:26:04;97846.72;;;5.02;100.00
31346;BME280;21711;49.708;18.568;2024-03-17T05:28:30;97849.84;;;4.80;100.00
31346;BME280;21711;49.708;18.568;2024-03-17T05:30:57;97854.34;;;4.73;100.00
31346;BME280;21711;49.708;18.568;2024-03-17T05:33:25;97853.53;;;4.72;100.00
31346;BME280;21711;49.708;18.568;2024-03-17T05:35:58;97865.75;;;4.97;100.00
31346;BME280;21711;49.708;18.568;2024-03-17T05:38:29;97867.19;;;5.12;100.00
31346;BME280;21711;49.708;18.568;2024-03-17T05:41:02;97868.38;;;4.97;100.00
31346;BME280;21711;49.708;18.568;2024-03-17T05:43:31;97866.47;;;5.05;100.00
31346;BME280;21711;49.708;18.568;2024-03-17T05:46:00;97864.69;;;5.17;100.00
31346;BME280;21711;49.708;18.568;2024-03-17T05:48:27;97868.78;;;5.44;100.00
31346;BME280;21711;49.708;18.568;2024-03-17T05:50:54;97868.41;;;5.95;100.00
31346;BME280;21711;49.708;18.568;2024-03-17T05:53:21;97860.91;;;6.34;100.00
31346;BME280;21711;49.708;18.568;2024-03-17T05:55:50;97865.41;;;6.63;100.00
31346;BME280;21711;49.708;18.568;2024-03-17T05:58:16;97862.72;;;6.45;100.00
31346;BME280;21711;49.708;18.568;2024-03-17T06:00:43;97871.97;;;7.01;100.00
31346;BME280;21711;49.708;18.568;2024-03-17T06:03:10;97869.78;;;8.25;100.00
31346;BME280;21711;49.708;18.568;2024-03-17T06:05:39;97882.28;;;8.74;100.00
31346;BME280;21711;49.708;18.568;2024-03-17T06:08:09;97876.72;;;7.62;100.00
31346;BME280;21711;49.708;18.568;2024-03-17T06:10:42;97878.16;;;8.84;100.00
31346;BME280;21711;49.708;18.568;2024-03-17T06:13:09;97896.31;;;10.18;100.00
31346;BME280;21711;49.708;18.568;2024-03-17T06:15:39;97892.94;;;10.71;100.00
31346;BME280;21711;49.708;18.568;2024-03-17T06:18:06;97892.63;;;11.41;100.00
31346;BME280;21711;49.708;18.568;2024-03-17T06:20:41;97901.94;;;11.60;78.58
31346;BME280;21711;49.708;18.568;2024-03-17T06:23:12;97911.19;;;11.62;74.08
31346;BME280;21711;49.708;18.568;2024-03-17T06:28:11;97912.84;;;13.07;68.08
31346;BME280;21711;49.708;18.568;2024-03-17T06:30:40;97912.09;;;13.57;63.81
31346;BME280;21711;49.708;18.568;2024-03-17T06:33:10;97921.06;;;13.96;62.69
31346;BME280;21711;49.708;18.568;2024-03-17T06:35:37;97918.25;;;13.42;57.57
31346;BME280;21711;49.708;18.568;2024-03-17T06:38:04;97921.44;;;13.39;57.88
31346;BME280;21711;49.708;18.568;2024-03-17T06:40:30;97919.09;;;13.77;56.18
31346;BME280;21711;49.708;18.568;2024-03-17T06:42:57;97925.94;;;14.18;54.84
31346;BME280;21711;49.708;18.568;2024-03-17T06:45:23;97924.47;;;14.61;55.00
31346;BME280;21711;49.708;18.568;2024-03-17T06:47:50;97926.28;;;14.66;51.59
31346;BME280;21711;49.708;18.568;2024-03-17T06:50:16;97933.41;;;14.76;51.76
31346;BME280;21711;49.708;18.568;2024-03-17T06:52:43;97930.16;;;15.03;52.69
31346;BME280;21711;49.708;18.568;2024-03-17T06:55:09;97933.28;;;14.86;49.93
31346;BME280;21711;49.708;18.568;2024-03-17T06:57:35;97918.41;;;13.96;51.82
31346;BME280;21711;49.708;18.568;2024-03-17T07:00:03;97926.91;;;14.57;50.02
31346;BME280;21711;49.708;18.568;2024-03-17T07:02:32;97928.53;;;14.53;49.62
31346;BME280;21711;49.708;18.568;2024-03-17T07:04:58;97922.41;;;15.45;48.39
31346;BME280;21711;49.708;18.568;2024-03-17T07:07:28;97929.06;;;16.34;44.43
31346;BME280;21711;49.708;18.568;2024-03-17T07:09:54;97928.81;;;16.77;44.70
31346;BME280;21711;49.708;18.568;2024-03-17T07:12:20;97921.03;;;16.20;42.14
31346;BME280;21711;49.708;18.568;2024-03-17T07:14:50;97928.81;;;17.56;40.56
31346;BME280;21711;49.708;18.568;2024-03-17T07:17:18;97937.94;;;18.56;37.45
31346;BME280;21711;49.708;18.568;2024-03-17T07:19:44;97920.91;;;16.11;39.26
31346;BME280;21711;49.708;18.568;2024-03-17T07:22:10;97914.94;;;14.84;41.86
31346;BME280;21711;49.708;18.568;2024-03-17T07:24:37;97919.72;;;15.84;41.04
31346;BME280;21711;49.708;18.568;2024-03-17T07:27:03;97930.97;;;16.47;41.67
31346;BME280;21711;49.708;18.568;2024-03-17T07:29:30;97941.66;;;18.46;38.50
31346;BME280;21711;49.708;18.568;2024-03-17T07:31:56;97939.88;;;17.27;35.50
31346;BME280;21711;49.708;18.568;2024-03-17T07:34:22;97952.09;;;18.24;35.75
31346;BME280;21711;49.708;18.568;2024-03-17T07:36:49;97946.72;;;18.47;36.00
31346;BME280;21711;49.708;18.568;2024-03-17T07:39:15;97932.81;;;17.68;35.93
31346;BME280;21711;49.708;18.568;2024-03-17T07:41:42;97922.44;;;17.66;35.11
31346;BME280;21711;49.708;18.568;2024-03-17T07:44:08;97927.31;;;18.82;34.00
31346;BME280;21711;49.708;18.568;2024-03-17T07:46:35;97926.13;;;20.69;32.41
31346;BME280;21711;49.708;18.568;2024-03-17T07:49:01;97925.28;;;18.88;32.92
31346;BME280;21711;49.708;18.568;2024-03-17T07:51:27;97923.06;;;18.81;32.87
31346;BME280;21711;49.708;18.568;2024-03-17T07:53:54;97925.22;;;21.25;30.71
31346;BME280;21711;49.708;18.568;2024-03-17T07:56:20;97930.22;;;22.24;29.99
31346;BME280;21711;49.708;18.568;2024-03-17T07:58:46;97919.03;;;18.52;32.93
31346;BME280;21711;49.708;18.568;2024-03-17T08:01:17;97923.25;;;20.74;31.19
31346;BME280;21711;49.708;18.568;2024-03-17T08:03:47;97914.66;;;18.65;33.37
31346;BME280;21711;49.708;18.568;2024-03-17T08:06:22;97913.56;;;18.25;34.67
31346;BME280;21711;49.708;18.568;2024-03-17T08:08:48;97920.78;;;19.06;32.42
31346;BME280;21711;49.708;18.568;2024-03-17T08:11:15;97914.53;;;18.07;33.26
31346;BME280;21711;49.708;18.568;2024-03-17T08:13:41;97900.75;;;16.04;36.14
31346;BME280;21711;49.708;18.568;2024-03-17T08:16:07;97909.03;;;15.84;37.40
31346;BME280;21711;49.708;18.568;2024-03-17T08:18:37;97904.28;;;16.75;35.14
31346;BME280;21711;49.708;18.568;2024-03-17T08:21:04;97916.53;;;20.59;30.08
31346;BME280;21711;49.708;18.568;2024-03-17T08:23:35;97928.47;;;22.91;27.82
31346;BME280;21711;49.708;18.568;2024-03-17T08:26:05;97920.31;;;20.58;28.78
31346;BME280;21711;49.708;18.568;2024-03-17T08:28:32;97921.25;;;20.62;29.61
31346;BME280;21711;49.708;18.568;2024-03-17T08:31:00;97921.88;;;20.68;29.97
31346;BME280;21711;49.708;18.568;2024-03-17T08:33:28;97917.09;;;20.34;29.81
31346;BME280;21711;49.708;18.568;2024-03-17T08:36:03;97907.81;;;16.99;33.96
31346;BME280;21711;49.708;18.568;2024-03-17T08:38:31;97918.00;;;20.47;30.40
31346;BME280;21711;49.708;18.568;2024-03-17T08:41:06;97909.75;;;19.69;29.77
31346;BME280;21711;49.708;18.568;2024-03-17T08:43:33;97918.38;;;22.04;28.90
31346;BME280;21711;49.708;18.568;2024-03-17T08:46:01;97917.88;;;21.89;27.47
31346;BME280;21711;49.708;18.568;2024-03-17T08:48:31;97924.41;;;24.20;25.80
31346;BME280;21711;49.708;18.568;2024-03-17T08:50:59;97914.97;;;24.62;24.66
31346;BME280;21711;49.708;18.568;2024-03-17T08:53:27;97920.44;;;25.93;23.55
31346;BME280;21711;49.708;18.568;2024-03-17T08:55:55;97913.72;;;23.95;25.25
31346;BME280;21711;49.708;18.568;2024-03-17T08:58:22;97892.88;;;17.71;30.18
31346;BME280;21711;49.708;18.568;2024-03-17T09:00:48;97880.66;;;16.54;32.71
31346;BME280;21711;49.708;18.568;2024-03-17T09:03:15;97889.22;;;20.09;29.23
31346;BME280;21711;49.708;18.568;2024-03-17T09:05:45;97900.06;;;23.47;25.93
31346;BME280;21711;49.708;18.568;2024-03-17T09:08:20;97907.13;;;24.25;22.96
31346;BME280;21711;49.708;18.568;2024-03-17T09:10:49;97898.53;;;22.09;25.75
31346;BME280;21711;49.708;18.568;2024-03-17T09:13:20;97888.09;;;18.86;29.43
31346;BME280;21711;49.708;18.568;2024-03-17T09:15:58;97874.81;;;17.31;32.60
31346;BME280;21711;49.708;18.568;2024-03-17T09:18:33;97875.38;;;17.42;33.50
31346;BME280;21711;49.708;18.568;2024-03-17T09:21:06;97866.44;;;14.14;34.25
31346;BME280;21711;49.708;18.568;2024-03-17T09:23:40;97865.75;;;15.20;35.62
31346;BME280;21711;49.708;18.568;2024-03-17T09:26:09;97876.97;;;19.28;30.27
31346;BME280;21711;49.708;18.568;2024-03-17T09:28:37;97876.25;;;21.74;27.76
31346;BME280;21711;49.708;18.568;2024-03-17T09:31:04;97884.22;;;22.29;26.98
31346;BME280;21711;49.708;18.568;2024-03-17T09:33:34;97878.91;;;24.22;25.39
31346;BME280;21711;49.708;18.568;2024-03-17T09:36:09;97874.94;;;24.68;23.99
31346;BME280;21711;49.708;18.568;2024-03-17T09:38:40;97875.69;;;23.31;26.27
31346;BME280;21711;49.708;18.568;2024-03-17T09:41:07;97874.78;;;23.68;25.17
31346;BME280;21711;49.708;18.568;2024-03-17T09:43:35;97874.78;;;22.98;25.35
31346;BME280;21711;49.708;18.568;2024-03-17T09:46:03;97864.16;;;22.64;25.72
31346;BME280;21711;49.708;18.568;2024-03-17T09:48:30;97860.06;;;21.40;27.36
31346;BME280;21711;49.708;18.568;2024-03-17T09:51:02;97851.06;;;17.53;30.30
31346;BME280;21711;49.708;18.568;2024-03-17T09:53:32;97843.06;;;19.24;30.87
31346;BME280;21711;49.708;18.568;2024-03-17T09:56:13;97848.22;;;21.75;28.38
31346;BME280;21711;49.708;18.568;2024-03-17T09:58:51;97870.09;;;22.57;25.25
31346;BME280;21711;49.708;18.568;2024-03-17T10:01:18;97846.22;;;18.41;28.66
31346;BME280;21711;49.708;18.568;2024-03-17T10:03:54;97856.22;;;20.08;28.79
31346;BME280;21711;49.708;18.568;2024-03-17T10:06:31;97839.72;;;19.62;28.05
31346;BME280;21711;49.708;18.568;2024-03-17T10:08:59;97850.97;;;18.53;29.41
31346;BME280;21711;49.708;18.568;2024-03-17T10:11:35;97848.97;;;20.00;28.86
31346;BME280;21711;49.708;18.568;2024-03-17T10:14:08;97859.50;;;22.90;24.22
31346;BME280;21711;49.708;18.568;2024-03-17T10:16:38;97849.69;;;24.28;23.73
31346;BME280;21711;49.708;18.568;2024-03-17T10:19:24;97839.38;;;24.50;23.85
31346;BME280;21711;49.708;18.568;2024-03-17T10:22:00;97842.59;;;23.18;25.02
31346;BME280;21711;49.708;18.568;2024-03-17T10:24:28;97853.97;;;25.76;23.29
31346;BME280;21711;49.708;18.568;2024-03-17T10:26:57;97837.97;;;23.18;23.63
31346;BME280;21711;49.708;18.568;2024-03-17T10:32:14;97840.41;;;21.95;26.13
31346;BME280;21711;49.708;18.568;2024-03-17T10:34:42;97844.09;;;24.53;23.46
31346;BME280;21711;49.708;18.568;2024-03-17T10:37:11;97841.72;;;25.03;22.01
31346;BME280;21711;49.708;18.568;2024-03-17T10:39:43;97840.22;;;22.75;23.90
31346;BME280;21711;49.708;18.568;2024-03-17T10:42:12;97831.75;;;24.88;22.43
31346;BME280;21711;49.708;18.568;2024-03-17T10:44:41;97823.56;;;25.24;22.06
31346;BME280;21711;49.708;18.568;2024-03-17T10:47:25;97821.31;;;24.54;22.18
31346;BME280;21711;49.708;18.568;2024-03-17T10:49:55;97811.91;;;22.06;24.94
31346;BME280;21711;49.708;18.568;2024-03-17T10:52:23;97814.97;;;21.04;25.71
31346;BME280;21711;49.708;18.568;2024-03-17T10:54:53;97821.03;;;22.64;25.52
31346;BME280;21711;49.708;18.568;2024-03-17T10:57:53;97810.13;;;21.98;25.40
31346;BME280;21711;49.708;18.568;2024-03-17T11:00:24;97815.53;;;24.20;24.25
31346;BME280;21711;49.708;18.568;2024-03-17T11:02:56;97822.41;;;25.25;22.72
31346;BME280;21711;49.708;18.568;2024-03-17T11:05:25;97811.81;;;25.35;21.76
31346;BME280;21711;49.708;18.568;2024-03-17T11:07:57;97799.00;;;20.56;26.24
31346;BME280;21711;49.708;18.568;2024-03-17T11:10:36;97798.13;;;18.18;26.94
31346;BME280;21711;49.708;18.568;2024-03-17T11:13:04;97795.00;;;18.34;27.65
31346;BME280;21711;49.708;18.568;2024-03-17T11:20:44;97799.94;;;24.13;23.86
31346;BME280;21711;49.708;18.568;2024-03-17T11:23:30;97798.88;;;23.85;23.38
31346;BME280;21711;49.708;18.568;2024-03-17T11:25:58;97800.03;;;25.67;23.46
31346;BME280;21711;49.708;18.568;2024-03-17T11:31:46;97804.78;;;25.74;23.16
31346;BME280;21711;49.708;18.568;2024-03-17T11:34:37;97793.41;;;25.88;22.66
31346;BME280;21711;49.708;18.568;2024-03-17T11:37:07;97790.47;;;25.54;23.22
31346;BME280;21711;49.708;18.568;2024-03-17T11:39:55;97788.09;;;23.12;24.10
31346;BME280;21711;49.708;18.568;2024-03-17T11:42:26;97784.91;;;21.69;26.21
31346;BME280;21711;49.708;18.568;2024-03-17T11:45:09;97773.59;;;18.34;29.99
31346;BME280;21711;49.708;18.568;2024-03-17T11:47:41;97769.16;;;17.88;30.32
31346;BME280;21711;49.708;18.568;2024-03-17T11:50:10;97759.38;;;17.20;32.04
31346;BME280;21711;49.708;18.568;2024-03-17T11:52:39;97761.25;;;16.18;32.65
31346;BME280;21711;49.708;18.568;2024-03-17T11:55:16;97759.19;;;17.71;31.33
31346;BME280;21711;49.708;18.568;2024-03-17T11:57:45;97756.91;;;17.10;32.15
31346;BME280;21711;49.708;18.568;2024-03-17T12:00:23;97747.53;;;16.99;34.32
31346;BME280;21711;49.708;18.568;2024-03-17T12:02:50;97757.69;;;19.61;29.93
31346;BME280;21711;49.708;18.568;2024-03-17T12:05:17;97753.38;;;21.45;28.13
31346;BME280;21711;49.708;18.568;2024-03-17T12:07:43;97769.97;;;22.96;26.70
31346;BME280;21711;49.708;18.568;2024-03-17T12:10:13;97754.44;;;21.65;26.63
31346;BME280;21711;49.708;18.568;2024-03-17T12:12:47;97746.06;;;19.87;27.70
31346;BME280;21711;49.708;18.568;2024-03-17T12:15:19;97736.88;;;18.17;30.67
31346;BME280;21711;49.708;18.568;2024-03-17T12:17:53;97739.97;;;18.95;29.94
31346;BME280;21711;49.708;18.568;2024-03-17T12:20:21;97736.91;;;19.49;30.29
31346;BME280;21711;49.708;18.568;2024-03-17T12:22:48;97730.19;;;17.33;33.48
31346;BME280;21711;49.708;18.568;2024-03-17T12:25:18;97716.22;;;15.41;34.88
31346;BME280;21711;49.708;18.568;2024-03-17T12:27:46;97713.06;;;13.80;37.35
31346;BME280;21711;49.708;18.568;2024-03-17T12:30:15;97713.59;;;13.23;40.09
31346;BME280;21711;49.708;18.568;2024-03-17T12:32:43;97711.47;;;14.28;38.32
31346;BME280;21711;49.708;18.568;2024-03-17T12:35:15;97711.19;;;16.52;35.69
31346;BME280;21711;49.708;18.568;2024-03-17T12:37:47;97713.13;;;16.97;35.00
31346;BME280;21711;49.708;18.568;2024-03-17T12:40:21;97706.22;;;15.94;35.10
31346;BME280;21711;49.708;18.568;2024-03-17T12:42:50;97705.97;;;15.62;36.55
31346;BME280;21711;49.708;18.568;2024-03-17T12:45:21;97698.91;;;14.72;38.50
31346;BME280;21711;49.708;18.568;2024-03-17T12:47:50;97705.72;;;15.78;36.89
31346;BME280;21711;49.708;18.568;2024-03-17T12:50:17;97693.84;;;14.76;38.81
31346;BME280;21711;49.708;18.568;2024-03-17T12:52:54;97696.16;;;14.19;38.35
31346;BME280;21711;49.708;18.568;2024-03-17T12:55:22;97701.22;;;15.31;37.39
31346;BME280;21711;49.708;18.568;2024-03-17T12:58:09;97698.66;;;15.40;36.66
31346;BME280;21711;49.708;18.568;2024-03-17T13:01:06;97693.59;;;16.14;36.60
31346;BME280;21711;49.708;18.568;2024-03-17T13:03:35;97691.78;;;16.60;35.79
31346;BME280;21711;49.708;18.568;2024-03-17T13:06:06;97697.03;;;16.65;34.80
31346;BME280;21711;49.708;18.568;2024-03-17T13:08:33;97684.69;;;15.76;37.22
31346;BME280;21711;49.708;18.568;2024-03-17T13:11:00;97693.06;;;16.26;36.28
31346;BME280;21711;49.708;18.568;2024-03-17T13:13:27;97691.56;;;16.20;35.71